Albany, Iowa
Current Conditions -  °F | °C
As of 10:55 AM on Saturday 22 Nov 2014 (Local Time) from KOLZ Reporting Station
Moderate Fog Moderate Fog  
Wind Chill: 31°   Ceiling: 200
Heat Index: 37°   Visibility: 0mi
Dew Point: 37°   Wind: 9mph
Humidity: 100%   Direction: 200°SSW
Pressure: 29.84"   Gusts: NA
Location:  42.8663°N, 91.8396°W
Report Text: KOLZ 221655Z AUTO 20008KT M1/4SM FG OVC002 03/03 A2984 RMK AO2
Loading
Personal Weather Stations






























Interactive Weather Map New forecast layout! Learn more

10-Day Weather Forecast

Advertisements
Track Severe Weather on mobile